sensor_id;sensor_type;location;lat;lon;timestamp;pressure;altitude;pressure_sealevel;temperature;humidity
76337;BME280;65157;50.082;18.178;2023-05-07T00:01:14;99442.52;;;11.43;74.03
76337;BME280;65157;50.082;18.178;2023-05-07T00:03:41;99437.73;;;11.40;74.01
76337;BME280;65157;50.082;18.178;2023-05-07T00:06:07;99436.92;;;11.38;73.91
76337;BME280;65157;50.082;18.178;2023-05-07T00:08:34;99437.64;;;11.37;74.03
76337;BME280;65157;50.082;18.178;2023-05-07T00:11:01;99441.24;;;11.36;74.11
76337;BME280;65157;50.082;18.178;2023-05-07T00:13:27;99450.05;;;11.32;74.23
76337;BME280;65157;50.082;18.178;2023-05-07T00:15:54;99447.32;;;11.30;74.21
76337;BME280;65157;50.082;18.178;2023-05-07T00:18:21;99438.58;;;11.23;74.09
76337;BME280;65157;50.082;18.178;2023-05-07T00:20:47;99447.17;;;11.25;74.04
76337;BME280;65157;50.082;18.178;2023-05-07T00:23:14;99450.38;;;11.25;74.14
76337;BME280;65157;50.082;18.178;2023-05-07T00:25:41;99448.50;;;11.23;73.94
76337;BME280;65157;50.082;18.178;2023-05-07T00:28:07;99452.33;;;11.20;73.84
76337;BME280;65157;50.082;18.178;2023-05-07T00:30:34;99461.95;;;11.18;73.75
76337;BME280;65157;50.082;18.178;2023-05-07T00:33:01;99459.31;;;11.14;73.68
76337;BME280;65157;50.082;18.178;2023-05-07T00:35:30;99458.57;;;11.10;73.78
76337;BME280;65157;50.082;18.178;2023-05-07T00:37:57;99463.14;;;11.06;73.87
76337;BME280;65157;50.082;18.178;2023-05-07T00:40:24;99463.48;;;11.03;73.98
76337;BME280;65157;50.082;18.178;2023-05-07T00:42:51;99465.63;;;11.02;74.20
76337;BME280;65157;50.082;18.178;2023-05-07T00:45:17;99462.65;;;11.02;74.17
76337;BME280;65157;50.082;18.178;2023-05-07T00:47:44;99460.08;;;11.00;74.19
76337;BME280;65157;50.082;18.178;2023-05-07T00:50:11;99467.56;;;10.98;74.27
76337;BME280;65157;50.082;18.178;2023-05-07T00:52:38;99469.23;;;10.96;74.35
76337;BME280;65157;50.082;18.178;2023-05-07T00:55:06;99467.20;;;10.94;74.22
76337;BME280;65157;50.082;18.178;2023-05-07T00:57:36;99471.02;;;10.91;74.29
76337;BME280;65157;50.082;18.178;2023-05-07T01:00:04;99471.01;;;10.87;74.33
76337;BME280;65157;50.082;18.178;2023-05-07T01:02:31;99472.73;;;10.84;74.37
76337;BME280;65157;50.082;18.178;2023-05-07T01:04:58;99475.46;;;10.81;74.41
76337;BME280;65157;50.082;18.178;2023-05-07T01:07:24;99475.67;;;10.81;74.48
76337;BME280;65157;50.082;18.178;2023-05-07T01:09:51;99481.39;;;10.79;74.50
76337;BME280;65157;50.082;18.178;2023-05-07T01:12:18;99475.49;;;10.76;74.56
76337;BME280;65157;50.082;18.178;2023-05-07T01:14:45;99479.41;;;10.75;74.68
76337;BME280;65157;50.082;18.178;2023-05-07T01:17:12;99475.59;;;10.73;74.61
76337;BME280;65157;50.082;18.178;2023-05-07T01:19:38;99474.29;;;10.71;74.67
76337;BME280;65157;50.082;18.178;2023-05-07T01:22:10;99476.65;;;10.69;74.81
76337;BME280;65157;50.082;18.178;2023-05-07T01:24:37;99472.77;;;10.69;74.71
76337;BME280;65157;50.082;18.178;2023-05-07T01:27:04;99474.06;;;10.68;74.77
76337;BME280;65157;50.082;18.178;2023-05-07T01:29:31;99476.60;;;10.66;74.83
76337;BME280;65157;50.082;18.178;2023-05-07T01:31:59;99477.80;;;10.67;74.85
76337;BME280;65157;50.082;18.178;2023-05-07T01:34:28;99480.81;;;10.67;74.95
76337;BME280;65157;50.082;18.178;2023-05-07T01:36:57;99478.84;;;10.67;74.72
76337;BME280;65157;50.082;18.178;2023-05-07T01:39:26;99475.46;;;10.68;74.72
76337;BME280;65157;50.082;18.178;2023-05-07T01:41:55;99475.16;;;10.67;74.67
76337;BME280;65157;50.082;18.178;2023-05-07T01:44:23;99475.52;;;10.62;74.71
76337;BME280;65157;50.082;18.178;2023-05-07T01:46:50;99475.39;;;10.61;74.71
76337;BME280;65157;50.082;18.178;2023-05-07T01:49:17;99464.70;;;10.54;74.68
76337;BME280;65157;50.082;18.178;2023-05-07T01:51:44;99472.63;;;10.59;74.95
76337;BME280;65157;50.082;18.178;2023-05-07T01:54:11;99475.25;;;10.59;74.90
76337;BME280;65157;50.082;18.178;2023-05-07T01:56:37;99476.86;;;10.59;75.07
76337;BME280;65157;50.082;18.178;2023-05-07T01:59:04;99475.14;;;10.58;75.09
76337;BME280;65157;50.082;18.178;2023-05-07T02:01:31;99473.30;;;10.55;75.18
76337;BME280;65157;50.082;18.178;2023-05-07T02:04:00;99471.60;;;10.54;75.32
76337;BME280;65157;50.082;18.178;2023-05-07T02:06:27;99471.89;;;10.56;75.34
76337;BME280;65157;50.082;18.178;2023-05-07T02:08:53;99475.60;;;10.56;75.37
76337;BME280;65157;50.082;18.178;2023-05-07T02:11:21;99474.94;;;10.54;75.41
76337;BME280;65157;50.082;18.178;2023-05-07T02:13:48;99478.52;;;10.48;75.48
76337;BME280;65157;50.082;18.178;2023-05-07T02:16:15;99475.44;;;10.46;75.69
76337;BME280;65157;50.082;18.178;2023-05-07T02:18:42;99473.39;;;10.44;75.75
76337;BME280;65157;50.082;18.178;2023-05-07T02:21:09;99475.58;;;10.43;75.83
76337;BME280;65157;50.082;18.178;2023-05-07T02:23:35;99474.71;;;10.42;75.74
76337;BME280;65157;50.082;18.178;2023-05-07T02:26:03;99473.20;;;10.40;75.96
76337;BME280;65157;50.082;18.178;2023-05-07T02:28:30;99475.60;;;10.37;76.02
76337;BME280;65157;50.082;18.178;2023-05-07T02:30:57;99474.72;;;10.33;76.01
76337;BME280;65157;50.082;18.178;2023-05-07T02:33:24;99478.80;;;10.32;76.14
76337;BME280;65157;50.082;18.178;2023-05-07T02:35:50;99478.71;;;10.30;76.16
76337;BME280;65157;50.082;18.178;2023-05-07T02:38:17;99484.98;;;10.27;76.13
76337;BME280;65157;50.082;18.178;2023-05-07T02:40:44;99473.84;;;10.18;76.30
76337;BME280;65157;50.082;18.178;2023-05-07T02:43:10;99482.09;;;10.19;76.34
76337;BME280;65157;50.082;18.178;2023-05-07T02:45:37;99484.69;;;10.16;76.57
76337;BME280;65157;50.082;18.178;2023-05-07T02:48:04;99481.85;;;10.10;76.62
76337;BME280;65157;50.082;18.178;2023-05-07T02:50:31;99478.02;;;10.09;76.66
76337;BME280;65157;50.082;18.178;2023-05-07T02:52:58;99479.96;;;10.09;76.80
76337;BME280;65157;50.082;18.178;2023-05-07T02:55:25;99481.23;;;10.09;76.80
76337;BME280;65157;50.082;18.178;2023-05-07T02:57:51;99480.86;;;10.09;77.14
76337;BME280;65157;50.082;18.178;2023-05-07T03:00:19;99481.32;;;10.06;77.09
76337;BME280;65157;50.082;18.178;2023-05-07T03:02:46;99486.44;;;10.06;77.10
76337;BME280;65157;50.082;18.178;2023-05-07T03:05:12;99488.36;;;10.06;77.28
76337;BME280;65157;50.082;18.178;2023-05-07T03:07:39;99491.33;;;10.07;77.42
76337;BME280;65157;50.082;18.178;2023-05-07T03:10:06;99492.78;;;10.06;77.49
76337;BME280;65157;50.082;18.178;2023-05-07T03:12:33;99496.58;;;10.08;77.50
76337;BME280;65157;50.082;18.178;2023-05-07T03:15:00;99496.02;;;10.09;77.40
76337;BME280;65157;50.082;18.178;2023-05-07T03:17:26;99498.96;;;10.10;77.25
76337;BME280;65157;50.082;18.178;2023-05-07T03:19:53;99504.64;;;10.09;77.40
76337;BME280;65157;50.082;18.178;2023-05-07T03:22:20;99508.23;;;10.08;77.50
76337;BME280;65157;50.082;18.178;2023-05-07T03:24:46;99508.45;;;10.06;77.74
76337;BME280;65157;50.082;18.178;2023-05-07T03:27:13;99507.25;;;10.00;77.81
76337;BME280;65157;50.082;18.178;2023-05-07T03:29:40;99513.30;;;9.99;77.69
76337;BME280;65157;50.082;18.178;2023-05-07T03:32:06;99511.11;;;9.96;77.76
76337;BME280;65157;50.082;18.178;2023-05-07T03:34:33;99513.73;;;9.98;77.73
76337;BME280;65157;50.082;18.178;2023-05-07T03:37:00;99520.02;;;9.98;77.72
76337;BME280;65157;50.082;18.178;2023-05-07T03:39:27;99514.02;;;9.99;77.69
76337;BME280;65157;50.082;18.178;2023-05-07T03:41:53;99516.80;;;10.00;77.54
76337;BME280;65157;50.082;18.178;2023-05-07T03:44:20;99518.65;;;10.03;77.52
76337;BME280;65157;50.082;18.178;2023-05-07T03:46:47;99509.85;;;9.97;77.32
76337;BME280;65157;50.082;18.178;2023-05-07T03:49:14;99524.36;;;10.05;77.28
76337;BME280;65157;50.082;18.178;2023-05-07T03:51:41;99525.79;;;10.05;77.32
76337;BME280;65157;50.082;18.178;2023-05-07T03:54:07;99531.05;;;10.06;77.26
76337;BME280;65157;50.082;18.178;2023-05-07T03:56:34;99530.88;;;10.06;77.18
76337;BME280;65157;50.082;18.178;2023-05-07T03:59:01;99534.60;;;10.05;77.16
76337;BME280;65157;50.082;18.178;2023-05-07T04:01:28;99534.98;;;10.04;77.20
76337;BME280;65157;50.082;18.178;2023-05-07T04:03:55;99536.86;;;10.01;77.05
76337;BME280;65157;50.082;18.178;2023-05-07T04:06:22;99535.15;;;10.00;77.01
76337;BME280;65157;50.082;18.178;2023-05-07T04:08:49;99540.48;;;9.98;77.04
76337;BME280;65157;50.082;18.178;2023-05-07T04:11:18;99540.20;;;9.96;77.09
76337;BME280;65157;50.082;18.178;2023-05-07T04:13:44;99546.46;;;9.94;77.17
76337;BME280;65157;50.082;18.178;2023-05-07T04:16:11;99547.31;;;9.90;77.37
76337;BME280;65157;50.082;18.178;2023-05-07T04:18:38;99549.15;;;9.88;77.39
76337;BME280;65157;50.082;18.178;2023-05-07T04:21:05;99556.52;;;9.89;77.48
76337;BME280;65157;50.082;18.178;2023-05-07T04:23:32;99560.17;;;9.90;77.47
76337;BME280;65157;50.082;18.178;2023-05-07T04:26:00;99566.84;;;9.91;77.76
76337;BME280;65157;50.082;18.178;2023-05-07T04:28:27;99571.90;;;9.87;77.78
76337;BME280;65157;50.082;18.178;2023-05-07T04:30:54;99575.58;;;9.83;77.97
76337;BME280;65157;50.082;18.178;2023-05-07T04:33:20;99578.73;;;9.78;78.24
76337;BME280;65157;50.082;18.178;2023-05-07T04:35:47;99582.55;;;9.75;78.49
76337;BME280;65157;50.082;18.178;2023-05-07T04:38:14;99583.75;;;9.76;78.40
76337;BME280;65157;50.082;18.178;2023-05-07T04:40:41;99583.84;;;9.78;78.29
76337;BME280;65157;50.082;18.178;2023-05-07T04:43:07;99582.36;;;9.81;78.21
76337;BME280;65157;50.082;18.178;2023-05-07T04:45:35;99585.45;;;9.83;78.23
76337;BME280;65157;50.082;18.178;2023-05-07T04:48:02;99575.33;;;9.74;78.14
76337;BME280;65157;50.082;18.178;2023-05-07T04:50:28;99589.14;;;9.84;78.21
76337;BME280;65157;50.082;18.178;2023-05-07T04:52:55;99584.59;;;9.77;78.10
76337;BME280;65157;50.082;18.178;2023-05-07T04:55:22;99586.75;;;9.76;78.21
76337;BME280;65157;50.082;18.178;2023-05-07T04:57:54;99599.20;;;9.84;78.10
76337;BME280;65157;50.082;18.178;2023-05-07T05:00:21;99603.14;;;9.81;78.25
76337;BME280;65157;50.082;18.178;2023-05-07T05:02:48;99602.73;;;9.78;78.33
76337;BME280;65157;50.082;18.178;2023-05-07T05:05:14;99610.25;;;9.74;78.28
76337;BME280;65157;50.082;18.178;2023-05-07T05:07:41;99612.08;;;9.72;78.39
76337;BME280;65157;50.082;18.178;2023-05-07T05:10:08;99615.08;;;9.72;78.41
76337;BME280;65157;50.082;18.178;2023-05-07T05:12:34;99620.80;;;9.70;78.29
76337;BME280;65157;50.082;18.178;2023-05-07T05:15:01;99614.45;;;9.65;78.08
76337;BME280;65157;50.082;18.178;2023-05-07T05:17:28;99628.87;;;9.71;77.82
76337;BME280;65157;50.082;18.178;2023-05-07T05:19:55;99622.16;;;9.66;77.84
76337;BME280;65157;50.082;18.178;2023-05-07T05:22:22;99631.42;;;9.68;77.72
76337;BME280;65157;50.082;18.178;2023-05-07T05:24:48;99633.05;;;9.67;77.83
76337;BME280;65157;50.082;18.178;2023-05-07T05:27:15;99636.02;;;9.69;77.79
76337;BME280;65157;50.082;18.178;2023-05-07T05:29:42;99635.39;;;9.71;77.62
76337;BME280;65157;50.082;18.178;2023-05-07T05:32:08;99641.83;;;9.73;77.79
76337;BME280;65157;50.082;18.178;2023-05-07T05:34:35;99640.35;;;9.75;77.64
76337;BME280;65157;50.082;18.178;2023-05-07T05:37:02;99640.86;;;9.76;77.51
76337;BME280;65157;50.082;18.178;2023-05-07T05:39:28;99642.35;;;9.79;77.29
76337;BME280;65157;50.082;18.178;2023-05-07T05:41:55;99649.20;;;9.80;77.15
76337;BME280;65157;50.082;18.178;2023-05-07T05:44:22;99653.86;;;9.78;77.27
76337;BME280;65157;50.082;18.178;2023-05-07T05:46:48;99651.66;;;9.75;77.40
76337;BME280;65157;50.082;18.178;2023-05-07T05:49:15;99654.05;;;9.72;77.48
76337;BME280;65157;50.082;18.178;2023-05-07T05:51:43;99652.79;;;9.73;77.34
76337;BME280;65157;50.082;18.178;2023-05-07T05:54:09;99654.14;;;9.69;77.43
76337;BME280;65157;50.082;18.178;2023-05-07T05:56:36;99658.86;;;9.64;77.48
76337;BME280;65157;50.082;18.178;2023-05-07T05:59:03;99658.23;;;9.62;77.41
76337;BME280;65157;50.082;18.178;2023-05-07T06:01:30;99661.05;;;9.63;77.39
76337;BME280;65157;50.082;18.178;2023-05-07T06:03:57;99659.57;;;9.64;77.37
76337;BME280;65157;50.082;18.178;2023-05-07T06:06:24;99662.17;;;9.65;77.25
76337;BME280;65157;50.082;18.178;2023-05-07T06:08:50;99664.43;;;9.67;77.23
76337;BME280;65157;50.082;18.178;2023-05-07T06:11:17;99664.45;;;9.65;77.29
76337;BME280;65157;50.082;18.178;2023-05-07T06:13:44;99667.78;;;9.67;77.41
76337;BME280;65157;50.082;18.178;2023-05-07T06:16:10;99669.13;;;9.69;77.21
76337;BME280;65157;50.082;18.178;2023-05-07T06:18:37;99665.81;;;9.68;77.06
76337;BME280;65157;50.082;18.178;2023-05-07T06:21:04;99669.03;;;9.72;76.93
76337;BME280;65157;50.082;18.178;2023-05-07T06:23:31;99659.14;;;9.67;76.84
76337;BME280;65157;50.082;18.178;2023-05-07T06:26:00;99671.87;;;9.72;76.69
76337;BME280;65157;50.082;18.178;2023-05-07T06:28:26;99678.52;;;9.73;76.61
76337;BME280;65157;50.082;18.178;2023-05-07T06:30:53;99671.58;;;9.69;76.42
76337;BME280;65157;50.082;18.178;2023-05-07T06:33:20;99671.05;;;9.69;76.31
76337;BME280;65157;50.082;18.178;2023-05-07T06:35:46;99682.95;;;9.72;76.30
76337;BME280;65157;50.082;18.178;2023-05-07T06:38:13;99684.92;;;9.71;76.12
76337;BME280;65157;50.082;18.178;2023-05-07T06:40:40;99688.44;;;9.72;76.19
76337;BME280;65157;50.082;18.178;2023-05-07T06:43:07;99692.67;;;9.71;76.18
76337;BME280;65157;50.082;18.178;2023-05-07T06:45:33;99693.54;;;9.72;76.14
76337;BME280;65157;50.082;18.178;2023-05-07T06:48:00;99694.56;;;9.73;76.17
76337;BME280;65157;50.082;18.178;2023-05-07T06:50:27;99699.23;;;9.75;76.24
76337;BME280;65157;50.082;18.178;2023-05-07T06:52:53;99700.63;;;9.76;76.01
76337;BME280;65157;50.082;18.178;2023-05-07T06:55:20;99706.52;;;9.79;75.99
76337;BME280;65157;50.082;18.178;2023-05-07T06:57:47;99706.08;;;9.82;75.87
76337;BME280;65157;50.082;18.178;2023-05-07T07:00:17;99708.67;;;9.83;75.89
76337;BME280;65157;50.082;18.178;2023-05-07T07:02:43;99714.49;;;9.84;75.73
76337;BME280;65157;50.082;18.178;2023-05-07T07:05:10;99713.58;;;9.84;75.71
76337;BME280;65157;50.082;18.178;2023-05-07T07:07:37;99714.63;;;9.85;75.66
76337;BME280;65157;50.082;18.178;2023-05-07T07:10:05;99715.70;;;9.84;75.73
76337;BME280;65157;50.082;18.178;2023-05-07T07:12:31;99718.98;;;9.81;75.56
76337;BME280;65157;50.082;18.178;2023-05-07T07:14:58;99724.96;;;9.76;75.66
76337;BME280;65157;50.082;18.178;2023-05-07T07:17:25;99728.67;;;9.70;75.56
76337;BME280;65157;50.082;18.178;2023-05-07T07:19:51;99731.91;;;9.67;75.74
76337;BME280;65157;50.082;18.178;2023-05-07T07:22:18;99738.13;;;9.65;75.68
76337;BME280;65157;50.082;18.178;2023-05-07T07:24:45;99743.16;;;9.63;75.78
76337;BME280;65157;50.082;18.178;2023-05-07T07:27:12;99746.02;;;9.61;75.74
76337;BME280;65157;50.082;18.178;2023-05-07T07:29:39;99750.08;;;9.61;75.68
76337;BME280;65157;50.082;18.178;2023-05-07T07:32:06;99753.08;;;9.61;75.68
76337;BME280;65157;50.082;18.178;2023-05-07T07:34:33;99751.27;;;9.57;75.60
76337;BME280;65157;50.082;18.178;2023-05-07T07:37:00;99758.20;;;9.61;75.55
76337;BME280;65157;50.082;18.178;2023-05-07T07:39:26;99756.77;;;9.61;75.46
76337;BME280;65157;50.082;18.178;2023-05-07T07:41:53;99756.64;;;9.60;75.53
76337;BME280;65157;50.082;18.178;2023-05-07T07:44:20;99755.10;;;9.64;75.61
76337;BME280;65157;50.082;18.178;2023-05-07T07:46:46;99758.80;;;9.70;75.66
76337;BME280;65157;50.082;18.178;2023-05-07T07:49:14;99755.88;;;9.74;75.42
76337;BME280;65157;50.082;18.178;2023-05-07T07:51:40;99752.23;;;9.77;75.14
76337;BME280;65157;50.082;18.178;2023-05-07T07:54:07;99757.19;;;9.82;74.80
76337;BME280;65157;50.082;18.178;2023-05-07T07:56:34;99758.81;;;9.86;74.52
76337;BME280;65157;50.082;18.178;2023-05-07T07:59:02;99765.77;;;9.90;74.52
76337;BME280;65157;50.082;18.178;2023-05-07T08:01:29;99769.87;;;9.94;74.47
76337;BME280;65157;50.082;18.178;2023-05-07T08:03:57;99771.54;;;9.97;74.23
76337;BME280;65157;50.082;18.178;2023-05-07T08:06:24;99774.98;;;9.99;74.04
76337;BME280;65157;50.082;18.178;2023-05-07T08:08:51;99771.95;;;10.00;73.94
76337;BME280;65157;50.082;18.178;2023-05-07T08:11:18;99774.86;;;10.04;73.68
76337;BME280;65157;50.082;18.178;2023-05-07T08:13:45;99780.27;;;10.05;73.36
76337;BME280;65157;50.082;18.178;2023-05-07T08:16:12;99783.04;;;10.07;73.27
76337;BME280;65157;50.082;18.178;2023-05-07T08:18:39;99776.08;;;10.09;73.20
76337;BME280;65157;50.082;18.178;2023-05-07T08:21:08;99778.98;;;10.13;73.05
76337;BME280;65157;50.082;18.178;2023-05-07T08:23:34;99780.09;;;10.17;72.82
76337;BME280;65157;50.082;18.178;2023-05-07T08:26:01;99781.91;;;10.21;72.47
76337;BME280;65157;50.082;18.178;2023-05-07T08:28:28;99780.58;;;10.24;72.51
76337;BME280;65157;50.082;18.178;2023-05-07T08:30:55;99790.85;;;10.28;72.30
76337;BME280;65157;50.082;18.178;2023-05-07T08:33:22;99790.20;;;10.32;72.15
76337;BME280;65157;50.082;18.178;2023-05-07T08:35:49;99792.95;;;10.40;72.44
76337;BME280;65157;50.082;18.178;2023-05-07T08:38:16;99785.52;;;10.46;72.46
76337;BME280;65157;50.082;18.178;2023-05-07T08:40:42;99798.79;;;10.60;72.19
76337;BME280;65157;50.082;18.178;2023-05-07T08:43:13;99792.34;;;10.69;72.20
76337;BME280;65157;50.082;18.178;2023-05-07T08:45:40;99794.55;;;10.76;72.03
76337;BME280;65157;50.082;18.178;2023-05-07T08:48:15;99792.45;;;10.81;71.26
76337;BME280;65157;50.082;18.178;2023-05-07T08:50:42;99795.84;;;10.85;71.34
76337;BME280;65157;50.082;18.178;2023-05-07T08:53:09;99794.89;;;10.87;71.18
76337;BME280;65157;50.082;18.178;2023-05-07T08:55:36;99796.30;;;10.87;70.55
76337;BME280;65157;50.082;18.178;2023-05-07T08:58:03;99795.13;;;10.85;70.59
76337;BME280;65157;50.082;18.178;2023-05-07T09:00:30;99798.48;;;10.85;70.18
76337;BME280;65157;50.082;18.178;2023-05-07T09:02:56;99799.75;;;10.84;70.08
76337;BME280;65157;50.082;18.178;2023-05-07T09:05:23;99801.09;;;10.86;70.32
76337;BME280;65157;50.082;18.178;2023-05-07T09:07:50;99807.17;;;10.89;69.99
76337;BME280;65157;50.082;18.178;2023-05-07T09:10:16;99810.16;;;10.89;70.13
76337;BME280;65157;50.082;18.178;2023-05-07T09:12:43;99815.01;;;10.92;69.86
76337;BME280;65157;50.082;18.178;2023-05-07T09:15:10;99817.88;;;10.91;69.79
76337;BME280;65157;50.082;18.178;2023-05-07T09:17:37;99818.88;;;10.88;69.72
76337;BME280;65157;50.082;18.178;2023-05-07T09:20:05;99826.10;;;10.93;69.76
76337;BME280;65157;50.082;18.178;2023-05-07T09:22:36;99823.38;;;10.95;69.41
76337;BME280;65157;50.082;18.178;2023-05-07T09:25:05;99830.05;;;10.96;69.46
76337;BME280;65157;50.082;18.178;2023-05-07T09:27:33;99830.25;;;11.01;69.45
76337;BME280;65157;50.082;18.178;2023-05-07T09:30:03;99830.50;;;11.04;69.25
76337;BME280;65157;50.082;18.178;2023-05-07T09:32:34;99832.35;;;11.06;69.13
76337;BME280;65157;50.082;18.178;2023-05-07T09:35:01;99831.74;;;11.08;69.03
76337;BME280;65157;50.082;18.178;2023-05-07T09:37:28;99836.40;;;11.12;68.92
76337;BME280;65157;50.082;18.178;2023-05-07T09:39:59;99833.35;;;11.18;68.86
76337;BME280;65157;50.082;18.178;2023-05-07T09:42:26;99827.95;;;11.16;68.44
76337;BME280;65157;50.082;18.178;2023-05-07T09:44:55;99837.81;;;11.21;68.26
76337;BME280;65157;50.082;18.178;2023-05-07T09:47:24;99840.23;;;11.23;68.10
76337;BME280;65157;50.082;18.178;2023-05-07T09:49:56;99839.28;;;11.25;68.24
76337;BME280;65157;50.082;18.178;2023-05-07T09:52:23;99840.77;;;11.28;68.03
76337;BME280;65157;50.082;18.178;2023-05-07T09:54:51;99844.90;;;11.31;67.96
76337;BME280;65157;50.082;18.178;2023-05-07T09:57:20;99835.85;;;11.27;67.81
76337;BME280;65157;50.082;18.178;2023-05-07T09:59:47;99850.37;;;11.36;67.64
76337;BME280;65157;50.082;18.178;2023-05-07T10:02:16;99851.42;;;11.36;67.24
76337;BME280;65157;50.082;18.178;2023-05-07T10:04:45;99852.48;;;11.36;67.15
76337;BME280;65157;50.082;18.178;2023-05-07T10:07:13;99854.17;;;11.39;67.20
76337;BME280;65157;50.082;18.178;2023-05-07T10:09:42;99855.48;;;11.42;66.79
76337;BME280;65157;50.082;18.178;2023-05-07T10:12:09;99856.71;;;11.47;66.85
76337;BME280;65157;50.082;18.178;2023-05-07T10:14:36;99850.56;;;11.46;66.67
76337;BME280;65157;50.082;18.178;2023-05-07T10:17:03;99858.42;;;11.53;66.55
76337;BME280;65157;50.082;18.178;2023-05-07T10:19:31;99859.73;;;11.56;66.52
76337;BME280;65157;50.082;18.178;2023-05-07T10:22:02;99860.34;;;11.59;66.34
76337;BME280;65157;50.082;18.178;2023-05-07T10:24:35;99868.85;;;11.58;66.00
76337;BME280;65157;50.082;18.178;2023-05-07T10:27:05;99868.06;;;11.55;66.00
76337;BME280;65157;50.082;18.178;2023-05-07T10:29:42;99867.21;;;11.59;66.17
76337;BME280;65157;50.082;18.178;2023-05-07T10:32:25;99865.44;;;11.64;66.04
76337;BME280;65157;50.082;18.178;2023-05-07T10:34:58;99865.41;;;11.70;65.96
76337;BME280;65157;50.082;18.178;2023-05-07T10:37:27;99867.39;;;11.79;65.97
76337;BME280;65157;50.082;18.178;2023-05-07T10:39:55;99868.55;;;11.86;65.53
76337;BME280;65157;50.082;18.178;2023-05-07T10:42:22;99870.95;;;11.88;65.21
76337;BME280;65157;50.082;18.178;2023-05-07T10:44:49;99872.52;;;11.94;65.43
76337;BME280;65157;50.082;18.178;2023-05-07T10:47:17;99874.13;;;11.98;65.06
76337;BME280;65157;50.082;18.178;2023-05-07T10:52:19;99866.97;;;11.95;65.24
76337;BME280;65157;50.082;18.178;2023-05-07T10:54:46;99874.66;;;11.98;65.18
76337;BME280;65157;50.082;18.178;2023-05-07T10:59:58;99879.13;;;11.92;64.97
76337;BME280;65157;50.082;18.178;2023-05-07T11:05:23;99880.64;;;11.88;64.84
76337;BME280;65157;50.082;18.178;2023-05-07T11:08:00;99883.39;;;11.82;64.82
76337;BME280;65157;50.082;18.178;2023-05-07T11:13:16;99895.17;;;11.74;64.72
76337;BME280;65157;50.082;18.178;2023-05-07T11:15:46;99893.55;;;11.69;64.63
76337;BME280;65157;50.082;18.178;2023-05-07T11:18:14;99897.88;;;11.67;64.39
76337;BME280;65157;50.082;18.178;2023-05-07T11:20:58;99899.41;;;11.64;64.63
76337;BME280;65157;50.082;18.178;2023-05-07T11:26:05;99904.22;;;11.58;64.92
76337;BME280;65157;50.082;18.178;2023-05-07T11:28:40;99906.11;;;11.54;64.67
76337;BME280;65157;50.082;18.178;2023-05-07T11:31:07;99905.39;;;11.50;64.91
76337;BME280;65157;50.082;18.178;2023-05-07T11:33:35;99907.77;;;11.48;64.87
76337;BME280;65157;50.082;18.178;2023-05-07T11:36:04;99908.38;;;11.45;64.76
76337;BME280;65157;50.082;18.178;2023-05-07T11:38:35;99912.42;;;11.40;65.06
76337;BME280;65157;50.082;18.178;2023-05-07T11:41:03;99917.48;;;11.37;65.25
76337;BME280;65157;50.082;18.178;2023-05-07T11:43:29;99919.48;;;11.36;65.21
76337;BME280;65157;50.082;18.178;2023-05-07T11:46:11;99919.42;;;11.32;65.53
76337;BME280;65157;50.082;18.178;2023-05-07T11:48:39;99918.80;;;11.30;65.22
76337;BME280;65157;50.082;18.178;2023-05-07T11:51:06;99917.64;;;11.28;65.34
76337;BME280;65157;50.082;18.178;2023-05-07T11:53:37;99916.05;;;11.28;65.42
76337;BME280;65157;50.082;18.178;2023-05-07T11:56:08;99925.82;;;11.27;65.45
76337;BME280;65157;50.082;18.178;2023-05-07T11:58:36;99930.09;;;11.26;65.66
76337;BME280;65157;50.082;18.178;2023-05-07T12:01:03;99933.83;;;11.25;65.45
76337;BME280;65157;50.082;18.178;2023-05-07T12:03:29;99937.08;;;11.23;65.24
76337;BME280;65157;50.082;18.178;2023-05-07T12:05:56;99939.15;;;11.19;65.30
76337;BME280;65157;50.082;18.178;2023-05-07T12:08:23;99936.57;;;11.17;65.45
76337;BME280;65157;50.082;18.178;2023-05-07T12:10:50;99941.05;;;11.15;65.39
76337;BME280;65157;50.082;18.178;2023-05-07T12:13:20;99941.14;;;11.12;65.59
76337;BME280;65157;50.082;18.178;2023-05-07T12:15:52;99941.34;;;11.11;65.65
76337;BME280;65157;50.082;18.178;2023-05-07T12:18:21;99940.73;;;11.09;65.75
76337;BME280;65157;50.082;18.178;2023-05-07T12:20:49;99943.54;;;11.09;65.54
76337;BME280;65157;50.082;18.178;2023-05-07T12:23:17;99942.59;;;11.06;65.50
76337;BME280;65157;50.082;18.178;2023-05-07T12:25:44;99938.20;;;11.00;65.74
76337;BME280;65157;50.082;18.178;2023-05-07T12:28:13;99949.39;;;11.03;65.68
76337;BME280;65157;50.082;18.178;2023-05-07T12:30:40;99945.91;;;11.02;65.84
76337;BME280;65157;50.082;18.178;2023-05-07T12:33:07;99936.02;;;10.97;65.78
76337;BME280;65157;50.082;18.178;2023-05-07T12:35:39;99939.58;;;10.96;65.95
76337;BME280;65157;50.082;18.178;2023-05-07T12:38:09;99948.05;;;11.01;65.91
76337;BME280;65157;50.082;18.178;2023-05-07T12:40:45;99952.33;;;11.00;65.82
76337;BME280;65157;50.082;18.178;2023-05-07T12:45:44;99944.47;;;10.92;65.70
76337;BME280;65157;50.082;18.178;2023-05-07T12:48:15;99958.23;;;10.93;65.79
76337;BME280;65157;50.082;18.178;2023-05-07T12:50:42;99960.25;;;10.90;66.05
76337;BME280;65157;50.082;18.178;2023-05-07T12:53:11;99952.23;;;10.87;66.34
76337;BME280;65157;50.082;18.178;2023-05-07T12:55:46;99948.42;;;10.84;66.66
76337;BME280;65157;50.082;18.178;2023-05-07T12:58:21;99958.23;;;10.87;66.14
76337;BME280;65157;50.082;18.178;2023-05-07T13:00:50;99956.81;;;10.82;66.21
76337;BME280;65157;50.082;18.178;2023-05-07T13:03:25;99952.78;;;10.81;66.37
76337;BME280;65157;50.082;18.178;2023-05-07T13:06:02;99966.27;;;10.84;66.34
76337;BME280;65157;50.082;18.178;2023-05-07T13:08:31;99965.63;;;10.82;66.39
76337;BME280;65157;50.082;18.178;2023-05-07T13:11:01;99967.69;;;10.78;66.23